createdAt,value
2023-03-12T00:02:04.187Z,100.00
2023-03-12T00:04:32.381Z,100.00
2023-03-12T00:06:59.384Z,100.00
2023-03-12T00:09:26.431Z,100.00
2023-03-12T00:11:53.504Z,100.00
2023-03-12T00:14:20.596Z,100.00
2023-03-12T00:16:47.567Z,100.00
2023-03-12T00:19:14.675Z,100.00
2023-03-12T00:21:41.660Z,100.00
2023-03-12T00:24:08.853Z,100.00
2023-03-12T00:26:35.868Z,100.00
2023-03-12T00:29:02.896Z,100.00
2023-03-12T00:31:32.791Z,100.00
2023-03-12T00:34:01.463Z,100.00
2023-03-12T00:36:30.989Z,100.00
2023-03-12T00:38:59.930Z,100.00
2023-03-12T00:41:28.337Z,100.00
2023-03-12T00:43:55.396Z,100.00
2023-03-12T00:46:22.570Z,100.00
2023-03-12T00:48:49.975Z,100.00
2023-03-12T00:51:17.008Z,100.00
2023-03-12T00:53:44.072Z,100.00
2023-03-12T00:56:11.209Z,100.00
2023-03-12T00:58:38.354Z,100.00
2023-03-12T01:01:05.518Z,100.00
2023-03-12T01:03:32.723Z,100.00
2023-03-12T01:05:59.848Z,100.00
2023-03-12T01:08:27.231Z,100.00
2023-03-12T01:10:54.492Z,100.00
2023-03-12T01:13:22.261Z,100.00
2023-03-12T01:15:49.419Z,100.00
2023-03-12T01:18:16.467Z,100.00
2023-03-12T01:20:43.561Z,100.00
2023-03-12T01:23:11.256Z,100.00
2023-03-12T01:25:38.261Z,100.00
2023-03-12T01:28:05.763Z,100.00
2023-03-12T01:30:32.900Z,100.00
2023-03-12T01:32:59.973Z,100.00
2023-03-12T01:35:27.042Z,100.00
2023-03-12T01:37:55.867Z,100.00
2023-03-12T01:40:28.832Z,100.00
2023-03-12T01:42:57.986Z,100.00
2023-03-12T01:46:03.035Z,100.00
2023-03-12T01:48:38.462Z,100.00
2023-03-12T01:51:08.280Z,100.00
2023-03-12T01:53:37.815Z,100.00
2023-03-12T01:56:06.284Z,100.00
2023-03-12T01:58:37.968Z,100.00
2023-03-12T02:01:05.497Z,100.00
2023-03-12T02:03:35.255Z,100.00
2023-03-12T02:06:08.219Z,100.00
2023-03-12T02:08:37.997Z,100.00
2023-03-12T02:11:05.484Z,100.00
2023-03-12T02:13:33.002Z,100.00
2023-03-12T02:16:00.695Z,100.00
2023-03-12T02:18:28.253Z,100.00
2023-03-12T02:21:15.863Z,100.00
2023-03-12T02:23:57.532Z,100.00
2023-03-12T02:26:29.111Z,100.00
2023-03-12T02:28:59.894Z,100.00
2023-03-12T02:31:32.998Z,100.00
2023-03-12T02:34:00.631Z,100.00
2023-03-12T02:36:28.038Z,100.00
2023-03-12T02:38:55.862Z,100.00
2023-03-12T02:41:26.366Z,100.00
2023-03-12T02:44:08.407Z,100.00
2023-03-12T02:46:41.795Z,100.00
2023-03-12T02:49:09.317Z,100.00
2023-03-12T02:51:36.330Z,100.00
2023-03-12T02:54:03.656Z,100.00
2023-03-12T02:56:30.824Z,100.00
2023-03-12T02:58:59.264Z,100.00
2023-03-12T03:01:27.403Z,100.00
2023-03-12T03:03:54.884Z,100.00
2023-03-12T03:06:23.057Z,100.00
2023-03-12T03:08:50.172Z,100.00
2023-03-12T03:11:17.369Z,100.00
2023-03-12T03:13:44.782Z,100.00
2023-03-12T03:16:13.487Z,100.00
2023-03-12T03:18:40.686Z,100.00
2023-03-12T03:21:09.590Z,100.00
2023-03-12T03:23:37.311Z,100.00
2023-03-12T03:26:04.615Z,100.00
2023-03-12T03:28:31.958Z,100.00
2023-03-12T03:31:01.696Z,100.00
2023-03-12T03:33:35.803Z,100.00
2023-03-12T03:36:04.987Z,100.00
2023-03-12T03:38:35.954Z,100.00
2023-03-12T03:41:04.007Z,100.00
2023-03-12T03:43:33.389Z,100.00
2023-03-12T03:46:03.149Z,100.00
2023-03-12T03:48:33.774Z,100.00
2023-03-12T03:51:02.702Z,100.00
2023-03-12T03:53:32.027Z,100.00
2023-03-12T03:55:59.172Z,100.00
2023-03-12T03:58:26.168Z,100.00
2023-03-12T04:00:54.277Z,100.00
2023-03-12T04:03:21.316Z,100.00
2023-03-12T04:05:54.939Z,100.00
2023-03-12T04:08:22.247Z,100.00
2023-03-12T04:10:49.377Z,100.00
2023-03-12T04:13:16.446Z,100.00
2023-03-12T04:15:52.014Z,100.00
2023-03-12T04:18:20.340Z,100.00
2023-03-12T04:20:47.836Z,100.00
2023-03-12T04:23:14.939Z,100.00
2023-03-12T04:25:42.457Z,100.00
2023-03-12T04:28:09.492Z,100.00
2023-03-12T04:30:38.512Z,100.00
2023-03-12T04:33:06.899Z,99.81
2023-03-12T04:35:34.616Z,99.91
2023-03-12T04:38:02.268Z,100.00
2023-03-12T04:40:30.000Z,98.81
2023-03-12T04:42:57.218Z,97.35
2023-03-12T04:45:24.390Z,97.44
2023-03-12T04:47:51.401Z,97.91
2023-03-12T04:50:18.629Z,96.88
2023-03-12T04:52:45.714Z,96.56
2023-03-12T04:55:12.856Z,96.16
2023-03-12T04:57:40.283Z,95.76
2023-03-12T05:00:12.708Z,95.32
2023-03-12T05:02:41.765Z,94.81
2023-03-12T05:05:11.120Z,95.46
2023-03-12T05:07:38.478Z,95.33
2023-03-12T05:10:06.044Z,95.66
2023-03-12T05:12:33.099Z,94.45
2023-03-12T05:15:00.117Z,93.97
2023-03-12T05:17:27.858Z,94.16
2023-03-12T05:19:55.159Z,94.08
2023-03-12T05:22:22.263Z,93.71
2023-03-12T05:24:49.413Z,93.40
2023-03-12T05:27:17.774Z,93.01
2023-03-12T05:29:44.872Z,92.42
2023-03-12T05:32:12.112Z,92.04
2023-03-12T05:34:39.366Z,91.80
2023-03-12T05:37:06.899Z,91.20
2023-03-12T05:39:34.127Z,91.78
2023-03-12T05:42:05.276Z,91.56
2023-03-12T05:44:34.718Z,91.12
2023-03-12T05:47:02.174Z,91.51
2023-03-12T05:49:29.247Z,89.92
2023-03-12T05:51:57.573Z,89.42
2023-03-12T05:54:24.861Z,89.81
2023-03-12T05:56:52.994Z,90.52
2023-03-12T05:59:22.004Z,89.63
2023-03-12T06:01:49.954Z,89.74
2023-03-12T06:04:17.184Z,89.22
2023-03-12T06:06:45.228Z,88.83
2023-03-12T06:09:12.442Z,88.39
2023-03-12T06:11:39.513Z,88.91
2023-03-12T06:14:06.771Z,88.91
2023-03-12T06:16:35.807Z,88.43
2023-03-12T06:19:04.890Z,89.37
2023-03-12T06:21:35.152Z,89.65
2023-03-12T06:24:03.890Z,89.39
2023-03-12T06:26:57.055Z,89.76
2023-03-12T06:29:24.080Z,89.53
2023-03-12T06:31:52.273Z,89.43
2023-03-12T06:34:19.482Z,89.45
2023-03-12T06:36:46.513Z,89.42
2023-03-12T06:39:13.565Z,89.96
2023-03-12T06:41:41.682Z,91.13
2023-03-12T06:44:08.858Z,92.18
2023-03-12T06:46:36.941Z,93.09
2023-03-12T06:49:04.108Z,93.34
2023-03-12T06:51:31.283Z,95.36
2023-03-12T06:54:00.924Z,95.63
2023-03-12T06:56:29.393Z,97.47
2023-03-12T06:58:56.564Z,98.15
2023-03-12T07:01:23.585Z,98.50
2023-03-12T07:03:50.656Z,98.61
2023-03-12T07:06:22.671Z,98.30
2023-03-12T07:08:50.546Z,99.49
2023-03-12T07:11:18.253Z,98.39
2023-03-12T07:13:45.537Z,98.37
2023-03-12T07:16:12.772Z,98.59
2023-03-12T07:18:39.967Z,99.87
2023-03-12T07:21:07.013Z,100.00
2023-03-12T07:23:34.029Z,100.00
2023-03-12T07:26:01.044Z,100.00
2023-03-12T07:28:28.151Z,100.00
2023-03-12T07:31:06.544Z,100.00
2023-03-12T07:33:34.518Z,100.00
2023-03-12T07:36:02.177Z,100.00
2023-03-12T07:38:29.653Z,100.00
2023-03-12T07:40:58.650Z,100.00
2023-03-12T07:43:26.070Z,100.00
2023-03-12T07:45:55.022Z,100.00
2023-03-12T07:48:22.427Z,100.00
2023-03-12T07:50:49.593Z,100.00
2023-03-12T07:53:17.068Z,100.00
2023-03-12T07:55:46.301Z,100.00
2023-03-12T07:58:15.674Z,100.00
2023-03-12T08:00:43.239Z,100.00
2023-03-12T08:03:10.812Z,100.00
2023-03-12T08:05:38.047Z,100.00
2023-03-12T08:08:06.536Z,100.00
2023-03-12T08:10:33.814Z,100.00
2023-03-12T08:13:01.003Z,100.00
2023-03-12T08:15:28.097Z,100.00
2023-03-12T08:17:55.178Z,100.00
2023-03-12T08:20:22.204Z,100.00
2023-03-12T08:22:49.332Z,100.00
2023-03-12T08:25:18.490Z,100.00
2023-03-12T08:27:45.716Z,100.00
2023-03-12T08:30:12.970Z,100.00
2023-03-12T08:32:40.311Z,100.00
2023-03-12T08:35:07.889Z,100.00
2023-03-12T08:37:34.911Z,100.00
2023-03-12T08:40:02.286Z,100.00
2023-03-12T08:42:29.320Z,100.00
2023-03-12T08:44:56.359Z,100.00
2023-03-12T08:47:23.420Z,100.00
2023-03-12T08:49:50.465Z,100.00
2023-03-12T08:52:17.468Z,100.00
2023-03-12T08:54:44.467Z,100.00
2023-03-12T08:57:11.536Z,100.00
2023-03-12T08:59:39.029Z,100.00
2023-03-12T09:02:06.225Z,100.00
2023-03-12T09:04:33.361Z,100.00
2023-03-12T09:07:01.464Z,100.00
2023-03-12T09:09:28.597Z,100.00
2023-03-12T09:11:55.827Z,100.00
2023-03-12T09:17:10.590Z,100.00
2023-03-12T09:19:37.625Z,100.00
2023-03-12T09:22:04.664Z,100.00
2023-03-12T09:24:31.696Z,100.00
2023-03-12T09:26:58.762Z,100.00
2023-03-12T09:29:25.788Z,100.00
2023-03-12T09:31:53.110Z,100.00
2023-03-12T09:34:20.223Z,100.00
2023-03-12T09:36:47.430Z,100.00
2023-03-12T09:39:14.503Z,100.00
2023-03-12T09:41:44.640Z,100.00
2023-03-12T09:44:30.308Z,100.00
2023-03-12T09:47:01.989Z,100.00
2023-03-12T09:49:46.577Z,100.00
2023-03-12T09:52:32.893Z,100.00
2023-03-12T09:55:11.245Z,100.00
2023-03-12T09:57:38.499Z,100.00
2023-03-12T10:00:12.241Z,100.00
2023-03-12T10:02:42.226Z,100.00
2023-03-12T10:05:26.383Z,100.00
2023-03-12T10:08:23.952Z,100.00
2023-03-12T10:11:00.203Z,100.00
2023-03-12T10:13:43.680Z,100.00
2023-03-12T10:16:34.918Z,100.00
2023-03-12T10:19:20.470Z,100.00
2023-03-12T10:21:59.683Z,100.00
2023-03-12T10:24:39.660Z,100.00
2023-03-12T10:27:13.696Z,100.00
2023-03-12T10:29:44.992Z,100.00
2023-03-12T10:32:38.968Z,100.00
2023-03-12T10:35:16.675Z,100.00
2023-03-12T10:37:50.477Z,100.00
2023-03-12T10:40:21.914Z,100.00
2023-03-12T10:42:49.631Z,100.00
2023-03-12T10:45:43.653Z,100.00
2023-03-12T10:48:18.300Z,100.00
2023-03-12T10:51:01.334Z,100.00
2023-03-12T10:53:32.265Z,100.00
2023-03-12T10:56:11.585Z,100.00
2023-03-12T10:58:44.863Z,100.00
2023-03-12T11:01:27.256Z,100.00
2023-03-12T11:04:13.950Z,100.00
2023-03-12T11:06:40.978Z,100.00
2023-03-12T11:09:19.336Z,100.00
2023-03-12T11:11:50.098Z,100.00
2023-03-12T11:14:19.247Z,100.00
2023-03-12T11:16:46.404Z,100.00
2023-03-12T11:19:25.597Z,100.00
2023-03-12T11:22:04.588Z,100.00
2023-03-12T11:24:31.753Z,100.00
2023-03-12T11:27:25.450Z,100.00
2023-03-12T11:29:54.224Z,100.00
2023-03-12T11:32:28.590Z,100.00
2023-03-12T11:34:55.757Z,100.00
2023-03-12T11:37:59.516Z,100.00
2023-03-12T11:40:35.550Z,100.00
2023-03-12T11:43:41.717Z,100.00
2023-03-12T11:46:29.114Z,100.00
2023-03-12T11:48:56.267Z,100.00
2023-03-12T11:51:38.422Z,100.00
2023-03-12T11:54:14.511Z,100.00
2023-03-12T11:56:48.440Z,100.00
2023-03-12T11:59:57.341Z,100.00
2023-03-12T12:02:47.978Z,100.00
2023-03-12T12:05:52.788Z,100.00
2023-03-12T12:08:45.318Z,100.00
2023-03-12T12:11:35.674Z,100.00
2023-03-12T12:14:36.053Z,100.00
2023-03-12T12:17:21.373Z,100.00
2023-03-12T12:20:21.430Z,100.00
2023-03-12T12:23:00.749Z,100.00
2023-03-12T12:25:41.241Z,100.00
2023-03-12T12:28:20.166Z,100.00
2023-03-12T12:31:32.202Z,100.00
2023-03-12T12:34:10.961Z,100.00
2023-03-12T12:36:39.008Z,100.00
2023-03-12T12:39:41.188Z,100.00
2023-03-12T12:42:15.201Z,100.00
2023-03-12T12:44:51.043Z,100.00
2023-03-12T12:47:26.320Z,100.00
2023-03-12T12:49:57.996Z,100.00
2023-03-12T12:52:26.847Z,100.00
2023-03-12T12:54:56.665Z,100.00
2023-03-12T12:57:36.566Z,100.00
2023-03-12T13:00:42.693Z,100.00
2023-03-12T13:03:22.136Z,100.00
2023-03-12T13:05:52.139Z,100.00
2023-03-12T13:08:55.329Z,100.00
2023-03-12T13:11:24.589Z,100.00
2023-03-12T13:14:13.712Z,100.00
2023-03-12T13:16:45.742Z,100.00
2023-03-12T13:19:15.857Z,100.00
2023-03-12T13:21:56.297Z,100.00
2023-03-12T13:24:42.757Z,100.00
2023-03-12T13:27:28.256Z,100.00
2023-03-12T13:29:57.081Z,100.00
2023-03-12T13:32:36.345Z,100.00
2023-03-12T13:35:27.726Z,100.00
2023-03-12T13:37:54.673Z,100.00
2023-03-12T13:40:37.070Z,100.00
2023-03-12T13:43:09.939Z,100.00
2023-03-12T13:45:55.642Z,100.00
2023-03-12T13:48:24.480Z,100.00
2023-03-12T13:51:02.305Z,100.00
2023-03-12T13:53:35.250Z,100.00
2023-03-12T13:56:13.395Z,100.00
2023-03-12T13:59:03.126Z,100.00
2023-03-12T14:01:36.564Z,100.00
2023-03-12T14:04:13.102Z,100.00
2023-03-12T14:06:55.479Z,100.00
2023-03-12T14:09:49.056Z,100.00
2023-03-12T14:12:35.962Z,100.00
2023-03-12T14:15:19.050Z,100.00
2023-03-12T14:17:51.332Z,100.00
2023-03-12T14:20:21.532Z,100.00
2023-03-12T14:22:57.402Z,100.00
2023-03-12T14:25:43.613Z,100.00
2023-03-12T14:28:19.001Z,100.00
2023-03-12T14:30:57.133Z,100.00
2023-03-12T14:33:26.202Z,100.00
2023-03-12T14:36:00.261Z,100.00
2023-03-12T14:38:38.928Z,100.00
2023-03-12T14:41:32.017Z,100.00
2023-03-12T14:44:06.533Z,100.00
2023-03-12T14:46:33.600Z,100.00
2023-03-12T14:49:00.742Z,100.00
2023-03-12T14:51:35.417Z,100.00
2023-03-12T14:54:03.260Z,100.00
2023-03-12T14:56:35.080Z,100.00
2023-03-12T14:59:20.795Z,100.00
2023-03-12T15:01:48.187Z,100.00
2023-03-12T15:04:19.695Z,100.00
2023-03-12T15:06:59.060Z,100.00
2023-03-12T15:09:29.815Z,100.00
2023-03-12T15:12:03.026Z,100.00
2023-03-12T15:14:33.915Z,100.00
2023-03-12T15:17:03.643Z,100.00
2023-03-12T15:19:35.411Z,100.00
2023-03-12T15:22:04.136Z,100.00
2023-03-12T15:24:38.441Z,100.00
2023-03-12T15:27:28.066Z,100.00
2023-03-12T15:29:57.238Z,100.00
2023-03-12T15:32:26.021Z,100.00
2023-03-12T15:34:56.474Z,100.00
2023-03-12T15:37:41.198Z,100.00
2023-03-12T15:40:22.264Z,100.00
2023-03-12T15:42:49.807Z,100.00
2023-03-12T15:45:21.629Z,100.00
2023-03-12T15:47:50.796Z,100.00
2023-03-12T15:50:23.269Z,100.00
2023-03-12T15:53:11.323Z,100.00
2023-03-12T15:55:39.371Z,100.00
2023-03-12T15:58:40.389Z,100.00
2023-03-12T16:01:14.622Z,100.00
2023-03-12T16:03:45.256Z,100.00
2023-03-12T16:06:18.463Z,100.00
2023-03-12T16:08:52.787Z,100.00
2023-03-12T16:11:23.614Z,100.00
2023-03-12T16:13:54.484Z,100.00
2023-03-12T16:16:21.515Z,100.00
2023-03-12T16:18:48.642Z,100.00
2023-03-12T16:21:15.736Z,100.00
2023-03-12T16:23:42.711Z,100.00
2023-03-12T16:26:13.188Z,100.00
2023-03-12T16:28:40.556Z,100.00
2023-03-12T16:31:15.638Z,100.00
2023-03-12T16:33:44.682Z,100.00
2023-03-12T16:36:16.739Z,100.00
2023-03-12T16:38:44.261Z,100.00
2023-03-12T16:41:17.091Z,100.00
2023-03-12T16:43:51.403Z,100.00
2023-03-12T16:46:20.912Z,100.00
2023-03-12T16:48:55.259Z,100.00
2023-03-12T16:51:22.701Z,100.00
2023-03-12T16:54:01.986Z,100.00
2023-03-12T16:56:36.943Z,100.00
2023-03-12T16:59:10.999Z,100.00
2023-03-12T17:01:38.408Z,100.00
2023-03-12T17:04:05.485Z,100.00
2023-03-12T17:06:32.964Z,100.00
2023-03-12T17:09:00.230Z,100.00
2023-03-12T17:11:33.056Z,100.00
2023-03-12T17:14:03.160Z,100.00
2023-03-12T17:16:30.561Z,100.00
2023-03-12T17:18:58.063Z,100.00
2023-03-12T17:21:25.181Z,100.00
2023-03-12T17:23:52.236Z,100.00
2023-03-12T17:26:19.376Z,100.00
2023-03-12T17:28:47.186Z,100.00
2023-03-12T17:31:14.287Z,100.00
2023-03-12T17:33:43.141Z,100.00
2023-03-12T17:36:10.326Z,100.00
2023-03-12T17:38:37.881Z,100.00
2023-03-12T17:41:09.355Z,100.00
2023-03-12T17:43:39.412Z,100.00
2023-03-12T17:46:08.940Z,100.00
2023-03-12T17:48:36.057Z,100.00
2023-03-12T17:51:07.938Z,100.00
2023-03-12T17:53:35.002Z,100.00
2023-03-12T17:56:02.263Z,100.00
2023-03-12T17:58:29.292Z,100.00
2023-03-12T18:00:59.239Z,100.00
2023-03-12T18:03:26.326Z,100.00
2023-03-12T18:05:53.469Z,100.00
2023-03-12T18:08:20.609Z,100.00
2023-03-12T18:10:48.216Z,100.00
2023-03-12T18:13:15.503Z,100.00
2023-03-12T18:15:42.555Z,100.00
2023-03-12T18:18:09.550Z,100.00
2023-03-12T18:20:39.495Z,100.00
2023-03-12T18:23:07.073Z,100.00
2023-03-12T18:25:34.129Z,100.00
2023-03-12T18:28:01.120Z,100.00
2023-03-12T18:30:28.370Z,100.00
2023-03-12T18:32:55.430Z,100.00
2023-03-12T18:35:22.767Z,100.00
2023-03-12T18:37:51.806Z,100.00
2023-03-12T18:40:18.862Z,100.00
2023-03-12T18:42:45.908Z,100.00
2023-03-12T18:45:13.215Z,100.00
2023-03-12T18:47:40.369Z,100.00
2023-03-12T18:50:08.491Z,100.00
2023-03-12T18:52:35.616Z,100.00
2023-03-12T18:55:04.340Z,100.00
2023-03-12T18:57:31.619Z,100.00
2023-03-12T18:59:59.411Z,100.00
2023-03-12T19:02:26.530Z,100.00
2023-03-12T19:04:56.048Z,100.00
2023-03-12T19:07:23.303Z,100.00
2023-03-12T19:09:50.458Z,100.00
2023-03-12T19:12:17.757Z,100.00
2023-03-12T19:14:44.919Z,100.00
2023-03-12T19:17:11.979Z,100.00
2023-03-12T19:19:39.019Z,100.00
2023-03-12T19:22:08.951Z,100.00
2023-03-12T19:24:36.326Z,100.00
2023-03-12T19:27:03.425Z,100.00
2023-03-12T19:29:30.757Z,100.00
2023-03-12T19:31:58.069Z,100.00
2023-03-12T19:34:25.281Z,100.00
2023-03-12T19:36:52.539Z,100.00
2023-03-12T19:39:21.592Z,100.00
2023-03-12T19:41:50.190Z,100.00
2023-03-12T19:44:17.187Z,100.00
2023-03-12T19:46:44.328Z,100.00
2023-03-12T19:49:11.342Z,100.00
2023-03-12T19:51:40.224Z,100.00
2023-03-12T19:54:07.575Z,100.00
2023-03-12T19:56:34.742Z,100.00
2023-03-12T19:59:01.767Z,100.00
2023-03-12T20:01:28.781Z,100.00
2023-03-12T20:03:55.957Z,100.00
2023-03-12T20:06:23.094Z,100.00
2023-03-12T20:08:50.115Z,100.00
2023-03-12T20:11:17.125Z,100.00
2023-03-12T20:13:45.241Z,100.00
2023-03-12T20:16:13.817Z,100.00
2023-03-12T20:18:40.991Z,100.00
2023-03-12T20:21:08.107Z,100.00
2023-03-12T20:23:35.183Z,100.00
2023-03-12T20:26:02.382Z,100.00
2023-03-12T20:28:29.495Z,100.00
2023-03-12T20:30:56.691Z,100.00
2023-03-12T20:33:23.788Z,100.00
2023-03-12T20:35:51.309Z,100.00
2023-03-12T20:38:18.491Z,100.00
2023-03-12T20:40:46.278Z,100.00
2023-03-12T20:43:13.268Z,100.00
2023-03-12T20:45:40.755Z,100.00
2023-03-12T20:48:07.932Z,100.00
2023-03-12T20:50:37.520Z,100.00
2023-03-12T20:53:04.588Z,100.00
2023-03-12T20:55:31.589Z,100.00
2023-03-12T20:57:59.169Z,100.00
2023-03-12T21:00:26.160Z,100.00
2023-03-12T21:02:53.402Z,100.00
2023-03-12T21:05:20.684Z,100.00
2023-03-12T21:07:48.903Z,100.00
2023-03-12T21:10:16.145Z,100.00
2023-03-12T21:12:43.402Z,100.00
2023-03-12T21:15:12.368Z,100.00
2023-03-12T21:17:40.328Z,100.00
2023-03-12T21:20:12.953Z,100.00
2023-03-12T21:22:40.382Z,100.00
2023-03-12T21:25:07.597Z,100.00
2023-03-12T21:27:44.713Z,100.00
2023-03-12T21:30:17.464Z,100.00
2023-03-12T21:32:44.609Z,100.00
2023-03-12T21:35:11.742Z,100.00
2023-03-12T21:37:38.821Z,100.00
2023-03-12T21:40:07.764Z,100.00
2023-03-12T21:42:34.887Z,100.00
2023-03-12T21:45:01.875Z,100.00
2023-03-12T21:47:28.907Z,100.00
2023-03-12T21:49:55.895Z,100.00
2023-03-12T21:52:22.974Z,100.00
2023-03-12T21:54:50.166Z,100.00
2023-03-12T21:57:17.206Z,100.00
2023-03-12T21:59:44.236Z,100.00
2023-03-12T22:02:12.736Z,100.00
2023-03-12T22:04:40.082Z,100.00
2023-03-12T22:07:07.414Z,100.00
2023-03-12T22:09:34.412Z,100.00
2023-03-12T22:12:01.790Z,100.00
2023-03-12T22:14:29.055Z,100.00
2023-03-12T22:16:56.625Z,100.00
2023-03-12T22:19:24.281Z,100.00
2023-03-12T22:21:51.319Z,100.00
2023-03-12T22:24:18.317Z,100.00
2023-03-12T22:26:46.517Z,100.00
2023-03-12T22:29:13.682Z,100.00
2023-03-12T22:31:40.788Z,100.00
2023-03-12T22:34:08.076Z,100.00
2023-03-12T22:36:35.162Z,100.00
2023-03-12T22:39:02.184Z,100.00
2023-03-12T22:41:29.973Z,100.00
2023-03-12T22:44:02.232Z,100.00
2023-03-12T22:46:29.595Z,100.00
2023-03-12T22:48:59.903Z,100.00
2023-03-12T22:51:28.774Z,100.00
2023-03-12T22:53:55.791Z,100.00
2023-03-12T22:56:23.377Z,100.00
2023-03-12T22:58:50.468Z,100.00
2023-03-12T23:01:20.381Z,100.00
2023-03-12T23:03:48.223Z,100.00
2023-03-12T23:06:24.127Z,100.00
2023-03-12T23:08:52.517Z,100.00
2023-03-12T23:11:20.704Z,100.00
2023-03-12T23:13:49.622Z,100.00
2023-03-12T23:16:19.807Z,100.00
2023-03-12T23:18:47.348Z,100.00
2023-03-12T23:21:19.915Z,100.00
2023-03-12T23:23:47.795Z,100.00
2023-03-12T23:26:26.962Z,100.00
2023-03-12T23:28:58.717Z,100.00
2023-03-12T23:31:27.595Z,100.00
2023-03-12T23:33:56.072Z,100.00
2023-03-12T23:36:24.119Z,100.00
2023-03-12T23:38:51.374Z,100.00
2023-03-12T23:41:23.693Z,100.00
2023-03-12T23:43:51.491Z,100.00
2023-03-12T23:46:19.701Z,100.00
2023-03-12T23:48:46.907Z,100.00
2023-03-12T23:51:22.369Z,100.00
2023-03-12T23:53:51.682Z,100.00
2023-03-12T23:56:21.719Z,100.00
2023-03-12T23:58:50.412Z,100.00
